Time;durP1;ratioP1;P1;durP2;ratioP2;P2;SDS_P1;SDS_P2;PMS_P1;PMS_P2;Temp;Humidity;BMP_temperature;BMP_pressure;BME280_temperature;BME280_humidity;BME280_pressure;Samples;Min_cycle;Max_cycle;Signal;HPM_P1;HPM_P2
2023/03/01 00:00:18;;;;;;;13.52;7.80;;;1.60;99.90;;;;;;7406263;19;19919;-72
2023/03/01 00:02:47;;;;;;;15.32;8.27;;;2.50;99.90;;;;;;7403727;19;19922;-71
2023/03/01 00:05:16;;;;;;;17.08;9.00;;;1.50;99.90;;;;;;7402327;19;19987;-72
2023/03/01 00:07:46;;;;;;;14.57;8.20;;;2.10;99.90;;;;;;7404561;19;19923;-72
2023/03/01 00:10:17;;;;;;;16.00;8.50;;;1.60;99.90;;;;;;7403317;19;20283;-71
2023/03/01 00:12:46;;;;;;;14.73;8.20;;;2.20;99.90;;;;;;7403184;19;20424;-71
2023/03/01 00:15:15;;;;;;;16.95;8.82;;;2.00;99.90;;;;;;7402602;19;19906;-71
2023/03/01 00:17:44;;;;;;;14.93;8.43;;;1.30;99.90;;;;;;7403288;19;19970;-71
2023/03/01 00:20:14;;;;;;;13.95;8.70;;;1.90;99.90;;;;;;7403036;19;19915;-72
2023/03/01 00:22:43;;;;;;;19.98;10.57;;;1.20;99.90;;;;;;7401142;19;20363;-72
2023/03/01 00:25:12;;;;;;;21.58;12.43;;;;;;;;;;7402856;19;19921;-72
2023/03/01 00:27:44;;;;;;;23.63;11.50;;;2.30;99.90;;;;;;7400299;19;19927;-72
2023/03/01 00:30:33;;;;;;;19.75;11.57;;;1.20;99.90;;;;;;7404159;19;19930;-71
2023/03/01 00:33:02;;;;;;;24.25;11.73;;;2.20;99.90;;;;;;7402549;19;19918;-71
2023/03/01 00:35:37;;;;;;;18.15;10.40;;;2.40;99.90;;;;;;7402048;19;19911;-71
2023/03/01 00:38:06;;;;;;;22.27;10.45;;;1.90;99.90;;;;;;7402585;19;19926;-71
2023/03/01 00:40:37;;;;;;;19.08;10.43;;;1.30;99.90;;;;;;7403576;19;19919;-72
2023/03/01 00:43:08;;;;;;;17.90;10.55;;;1.80;99.90;;;;;;7400720;19;20353;-71
2023/03/01 00:45:37;;;;;;;17.92;9.32;;;2.10;99.90;;;;;;7402641;19;20241;-71
2023/03/01 00:48:12;;;;;;;17.35;10.10;;;1.10;99.90;;;;;;7402284;19;19922;-71
2023/03/01 00:50:42;;;;;;;16.85;9.18;;;2.20;99.90;;;;;;7401747;19;19932;-71
2023/03/01 00:53:11;;;;;;;16.58;8.95;;;2.30;99.90;;;;;;7402393;19;19936;-71
2023/03/01 00:55:40;;;;;;;15.52;9.23;;;2.10;99.90;;;;;;7404016;19;19923;-71
2023/03/01 00:58:11;;;;;;;19.23;9.27;;;1.30;99.90;;;;;;7401241;19;19926;-71
2023/03/01 01:00:40;;;;;;;18.88;11.07;;;0.90;99.90;;;;;;7401076;19;19922;-71
2023/03/01 01:03:10;;;;;;;19.73;9.60;;;1.90;99.90;;;;;;7405036;19;19926;-71
2023/03/01 01:05:40;;;;;;;18.20;9.98;;;1.20;99.90;;;;;;7403530;19;19992;-71
2023/03/01 01:08:09;;;;;;;18.70;10.73;;;1.80;99.90;;;;;;7403586;19;19919;-72
2023/03/01 01:10:38;;;;;;;20.30;10.38;;;0.90;99.90;;;;;;7405948;19;19923;-71
2023/03/01 01:13:10;;;;;;;16.95;10.00;;;2.10;99.90;;;;;;7401260;19;20340;-71
2023/03/01 01:15:39;;;;;;;19.52;9.88;;;1.80;99.90;;;;;;7402593;19;19930;-71
2023/03/01 01:18:12;;;;;;;17.98;10.75;;;0.80;99.90;;;;;;7405359;19;19929;-72
2023/03/01 01:20:41;;;;;;;17.23;10.02;;;;;;;;;;7403528;19;19950;-71
2023/03/01 01:23:10;;;;;;;19.85;9.57;;;0.80;99.90;;;;;;7400570;19;19922;-72
2023/03/01 01:25:39;;;;;;;17.77;10.38;;;1.30;99.90;;;;;;7402449;19;19931;-71
2023/03/01 01:28:12;;;;;;;21.58;10.43;;;0.90;99.90;;;;;;7401131;19;19970;-71
2023/03/01 01:30:40;;;;;;;18.95;10.15;;;1.70;99.90;;;;;;7401395;19;19915;-71
2023/03/01 01:33:10;;;;;;;19.30;10.38;;;;;;;;;;7400076;19;19915;-71
2023/03/01 01:35:38;;;;;;;15.77;8.68;;;1.00;99.90;;;;;;7401414;19;19922;-72
2023/03/01 01:38:07;;;;;;;16.83;9.95;;;1.60;99.90;;;;;;7402676;19;19932;-71
2023/03/01 01:40:36;;;;;;;18.50;9.73;;;0.60;99.90;;;;;;7401333;19;19921;-72
2023/03/01 01:43:05;;;;;;;20.20;10.25;;;1.40;99.90;;;;;;7399188;19;19922;-71
2023/03/01 01:45:39;;;;;;;16.60;9.25;;;0.90;99.90;;;;;;7398656;19;20340;-72
2023/03/01 01:48:13;;;;;;;20.45;10.27;;;1.80;99.90;;;;;;7401402;19;19923;-72
2023/03/01 01:51:02;;;;;;;15.85;9.68;;;1.30;99.90;;;;;;7401129;19;19921;-72
2023/03/01 01:53:31;;;;;;;19.42;9.93;;;1.00;99.90;;;;;;7401015;19;19930;-71
2023/03/01 01:56:04;;;;;;;19.23;10.48;;;1.70;99.90;;;;;;7400841;19;19930;-71
2023/03/01 01:58:33;;;;;;;;;;;1.50;99.90;;;;;;7403391;19;19929;-72
2023/03/01 02:01:05;;;;;;;17.92;9.75;;;1.30;99.90;;;;;;7400465;19;19914;-72
2023/03/01 02:03:37;;;;;;;17.65;10.38;;;1.40;99.90;;;;;;7398976;19;19929;-72
2023/03/01 02:06:09;;;;;;;21.75;10.90;;;0.40;99.90;;;;;;7401155;19;19947;-72
2023/03/01 02:08:42;;;;;;;19.17;11.38;;;1.90;99.90;;;;;;7399975;19;19939;-71
2023/03/01 02:11:14;;;;;;;18.95;10.48;;;1.70;99.90;;;;;;7399311;19;19918;-71
2023/03/01 02:13:44;;;;;;;18.88;10.10;;;0.40;99.90;;;;;;7398610;19;19924;-72
2023/03/01 02:16:17;;;;;;;21.38;11.60;;;1.50;99.90;;;;;;7399648;19;20257;-72
2023/03/01 02:18:47;;;;;;;21.30;11.57;;;1.10;99.90;;;;;;7400217;19;20328;-72
2023/03/01 02:21:28;;;;;;;19.08;10.80;;;1.90;99.90;;;;;;7399790;19;19922;-72
2023/03/01 02:23:58;;;;;;;17.83;10.60;;;2.10;99.90;;;;;;7401436;19;19926;-72
2023/03/01 02:26:37;;;;;;;20.38;11.13;;;1.20;99.90;;;;;;7400103;19;19986;-72
2023/03/01 02:29:09;;;;;;;20.23;9.90;;;0.00;99.90;;;;;;7399981;19;19924;-72
2023/03/01 02:32:02;;;;;;;21.15;10.88;;;1.50;99.90;;;;;;7398028;19;19919;-72
2023/03/01 02:34:33;;;;;;;18.75;10.30;;;0.90;99.90;;;;;;7401555;19;19928;-72
2023/03/01 02:37:05;;;;;;;20.95;10.35;;;0.20;99.90;;;;;;7397841;19;19919;-72
2023/03/01 02:39:41;;;;;;;17.65;9.77;;;0.60;99.90;;;;;;7403097;19;19935;-72
2023/03/01 02:42:13;;;;;;;17.42;9.73;;;1.60;99.90;;;;;;7398933;19;20300;-71
2023/03/01 02:44:45;;;;;;;19.33;10.18;;;1.70;99.90;;;;;;7401474;19;19922;-72
2023/03/01 02:47:14;;;;;;;20.17;10.73;;;0.20;99.90;;;;;;7399811;19;19918;-72
2023/03/01 02:49:43;;;;;;;20.92;10.95;;;1.60;99.90;;;;;;7399357;19;19926;-71
2023/03/01 02:52:37;;;;;;;18.48;10.25;;;0.30;99.90;;;;;;7400300;19;19933;-72
2023/03/01 02:55:10;;;;;;;21.27;11.02;;;0.40;99.90;;;;;;7403181;19;19922;-72
2023/03/01 02:57:41;;;;;;;21.33;10.38;;;0.90;99.90;;;;;;7400263;19;19918;-71
2023/03/01 03:00:19;;;;;;;17.05;9.82;;;1.20;99.90;;;;;;7402301;19;19933;-72
2023/03/01 03:02:48;;;;;;;18.30;9.95;;;0.20;99.90;;;;;;7398473;19;19926;-73
2023/03/01 03:05:20;;;;;;;17.85;8.98;;;0.70;99.90;;;;;;7398146;19;19918;-72
2023/03/01 03:07:51;;;;;;;11.95;6.75;;;1.60;99.90;;;;;;7398480;19;19914;-72
2023/03/01 03:10:28;;;;;;;7.38;5.10;;;0.40;99.90;;;;;;7401933;19;19919;-72
2023/03/01 03:13:03;;;;;;;7.32;5.07;;;0.90;99.90;;;;;;7397833;19;19978;-72
2023/03/01 03:15:35;;;;;;;9.40;5.18;;;0.40;99.90;;;;;;7401279;19;20313;-72
2023/03/01 03:18:06;;;;;;;12.13;7.00;;;0.70;99.90;;;;;;7406431;19;19986;-72
2023/03/01 03:20:36;;;;;;;13.50;8.30;;;1.20;99.90;;;;;;7406233;19;19923;-72
2023/03/01 03:23:05;;;;;;;15.10;9.02;;;0.20;99.90;;;;;;7406558;19;19938;-72
2023/03/01 03:25:37;;;;;;;14.18;8.25;;;1.20;99.90;;;;;;7402859;19;19935;-72
2023/03/01 03:28:09;;;;;;;11.88;8.23;;;0.90;99.90;;;;;;7403981;19;20021;-72
2023/03/01 03:30:42;;;;;;;13.68;8.27;;;0.50;99.90;;;;;;7408203;19;19922;-72
2023/03/01 03:33:12;;;;;;;16.10;9.15;;;1.10;99.90;;;;;;7405842;19;19914;-72
2023/03/01 03:35:43;;;;;;;15.70;8.75;;;1.00;99.90;;;;;;7406715;19;19934;-72
2023/03/01 03:38:18;;;;;;;40.85;9.10;;;1.00;99.90;;;;;;7403706;19;19934;-72
2023/03/01 03:40:49;;;;;;;19.17;7.65;;;0.30;99.90;;;;;;7404655;19;19928;-72
2023/03/01 03:43:20;;;;;;;12.55;8.05;;;-0.50;99.90;;;;;;7404839;19;19922;-72
2023/03/01 03:45:53;;;;;;;13.30;7.63;;;-0.40;99.90;;;;;;7404446;19;20348;-71
2023/03/01 03:48:23;;;;;;;9.98;6.45;;;0.70;99.90;;;;;;7404594;19;19922;-71
2023/03/01 03:50:54;;;;;;;11.00;7.32;;;-0.80;99.90;;;;;;7406134;19;20328;-71
2023/03/01 03:53:24;;;;;;;12.35;7.75;;;0.70;99.90;;;;;;7404873;19;19922;-71
2023/03/01 03:55:54;;;;;;;11.20;7.65;;;0.40;99.90;;;;;;7404765;19;19919;-72
2023/03/01 03:58:27;;;;;;;12.63;7.53;;;-0.70;99.90;;;;;;7404187;19;19959;-71
2023/03/01 04:01:00;;;;;;;12.23;8.07;;;-0.70;99.90;;;;;;7403838;19;20128;-71
2023/03/01 04:03:31;;;;;;;14.75;8.68;;;0.00;99.90;;;;;;7405389;19;20358;-72
2023/03/01 04:06:01;;;;;;;13.38;8.30;;;-0.30;99.90;;;;;;7403347;19;19922;-72
2023/03/01 04:08:31;;;;;;;14.50;8.38;;;-0.30;99.90;;;;;;7405289;19;20018;-71
2023/03/01 04:11:25;;;;;;;12.68;8.10;;;0.00;99.90;;;;;;7405007;19;19926;-72
2023/03/01 04:13:54;;;;;;;16.10;9.02;;;0.90;99.90;;;;;;7404117;19;19922;-72
2023/03/01 04:16:26;;;;;;;15.00;8.63;;;-0.80;99.90;;;;;;7406004;19;19933;-71
2023/03/01 04:18:56;;;;;;;13.00;7.75;;;-0.50;99.90;;;;;;7403633;19;20004;-72
2023/03/01 04:21:25;;;;;;;15.88;8.02;;;;;;;;;;7406959;19;19926;-71
2023/03/01 04:23:54;;;;;;;14.75;8.40;;;0.00;99.90;;;;;;7403539;19;19925;-72
2023/03/01 04:26:24;;;;;;;15.35;8.60;;;0.50;99.90;;;;;;7401736;19;20396;-72
2023/03/01 04:28:53;;;;;;;16.10;9.45;;;-0.60;99.90;;;;;;7404647;19;19911;-71
2023/03/01 04:31:22;;;;;;;15.10;8.63;;;0.70;99.90;;;;;;7405763;19;19934;-72
2023/03/01 04:33:56;;;;;;;15.65;8.38;;;-0.80;99.90;;;;;;7402992;19;20396;-72
2023/03/01 04:36:27;;;;;;;13.52;8.38;;;-0.10;99.90;;;;;;7405644;19;19923;-73
2023/03/01 04:38:57;;;;;;;17.17;7.97;;;0.00;99.90;;;;;;7403143;19;20247;-71
2023/03/01 04:41:27;;;;;;;16.42;8.73;;;-0.80;99.90;;;;;;7402773;19;20265;-70
2023/03/01 04:43:56;;;;;;;17.67;9.15;;;;;;;;;;7404696;19;19925;-71
2023/03/01 04:46:26;;;;;;;16.80;9.65;;;;;;;;;;7403114;19;20393;-72
2023/03/01 04:48:57;;;;;;;17.02;9.07;;;0.70;99.90;;;;;;7403426;19;19915;-72
2023/03/01 04:51:27;;;;;;;15.93;9.27;;;-0.70;99.90;;;;;;7407546;19;19930;-72
2023/03/01 04:53:56;;;;;;;17.50;9.40;;;;;;;;;;7402617;19;19924;-71
2023/03/01 04:56:25;;;;;;;16.70;9.57;;;-0.70;99.90;;;;;;7402860;19;19915;-71
2023/03/01 04:58:56;;;;;;;16.98;8.60;;;0.00;99.90;;;;;;7402624;19;19938;-72
2023/03/01 05:01:25;;;;;;;15.82;9.25;;;-0.10;99.90;;;;;;7405450;19;20269;-72
2023/03/01 05:04:02;;;;;;;20.15;9.27;;;0.30;99.90;;;;;;7401795;19;20313;-71
2023/03/01 05:06:32;;;;;;;16.25;9.25;;;-0.70;99.90;;;;;;7400599;19;19925;-72
2023/03/01 05:09:01;;;;;;;16.48;9.18;;;-0.30;99.90;;;;;;7405046;19;19923;-71
2023/03/01 05:11:35;;;;;;;18.50;9.43;;;-0.90;99.90;;;;;;7398611;19;19926;-72
2023/03/01 05:14:06;;;;;;;17.45;9.07;;;0.00;99.90;;;;;;7404767;19;20305;-72
2023/03/01 05:16:39;;;;;;;18.75;9.32;;;-0.20;99.90;;;;;;7401510;19;19915;-71
2023/03/01 05:19:14;;;;;;;17.25;9.38;;;0.50;99.90;;;;;;7405053;19;20074;-72
2023/03/01 05:24:29;;;;;;;16.23;9.15;;;-0.60;99.90;;;;;;7402460;19;20046;-72
2023/03/01 05:26:58;;;;;;;23.38;11.13;;;0.70;99.90;;;;;;7398607;19;19922;-71
2023/03/01 05:29:28;;;;;;;18.85;9.27;;;0.30;99.90;;;;;;7399837;19;20250;-72
2023/03/01 05:31:58;;;;;;;17.30;10.15;;;0.00;99.90;;;;;;7404370;19;19926;-72
2023/03/01 05:34:33;;;;;;;19.60;10.25;;;-0.20;99.90;;;;;;7401605;19;19919;-71
2023/03/01 05:37:05;;;;;;;18.13;11.02;;;-0.30;99.90;;;;;;7400343;19;19918;-71
2023/03/01 05:39:39;;;;;;;18.13;9.70;;;0.70;99.90;;;;;;7401734;19;19926;-71
2023/03/01 05:42:08;;;;;;;14.05;8.32;;;-0.90;99.90;;;;;;7402163;19;19922;-72
2023/03/01 05:44:38;;;;;;;18.98;9.93;;;0.00;99.90;;;;;;7402582;19;19922;-72
2023/03/01 05:47:07;;;;;;;17.17;9.40;;;0.30;99.90;;;;;;7400945;19;19915;-71
2023/03/01 05:49:39;;;;;;;17.05;9.27;;;-0.40;99.90;;;;;;7402695;19;19923;-71
2023/03/01 05:52:08;;;;;;;14.50;8.07;;;-0.40;99.90;;;;;;7402695;19;19918;-72
2023/03/01 05:54:38;;;;;;;16.13;8.57;;;-0.10;99.90;;;;;;7404114;19;19982;-72
2023/03/01 05:57:07;;;;;;;11.30;6.80;;;-1.20;99.90;;;;;;7400914;19;20357;-72
2023/03/01 05:59:36;;;;;;;12.38;6.93;;;;;;;;;;7400988;19;20328;-72
2023/03/01 06:02:06;;;;;;;9.68;6.35;;;-0.10;99.90;;;;;;7402625;19;19930;-73
2023/03/01 06:04:35;;;;;;;8.48;5.93;;;0.00;99.90;;;;;;7400262;19;20407;-72
2023/03/01 06:07:06;;;;;;;15.25;7.10;;;-1.10;99.90;;;;;;7398046;19;19984;-72
2023/03/01 06:09:39;;;;;;;7.72;5.57;;;0.00;99.90;;;;;;7402443;19;19926;-72
2023/03/01 06:12:09;;;;;;;9.00;5.85;;;-1.10;99.90;;;;;;7398772;19;19926;-72
2023/03/01 06:14:38;;;;;;;9.57;6.47;;;-1.00;99.90;;;;;;7399389;19;19911;-72
2023/03/01 06:17:07;;;;;;;9.98;6.07;;;;;;;;;;7399142;19;19945;-72
2023/03/01 06:19:36;;;;;;;12.00;7.82;;;-0.30;99.90;;;;;;7401725;19;20416;-72
2023/03/01 06:22:08;;;;;;;15.43;8.32;;;-0.50;99.90;;;;;;7399470;19;19918;-71
2023/03/01 06:24:37;;;;;;;17.60;9.05;;;-1.10;99.90;;;;;;7401360;19;20305;-71
2023/03/01 06:27:07;;;;;;;17.50;9.75;;;0.20;99.90;;;;;;7397794;19;20266;-72
2023/03/01 06:29:38;;;;;;;17.58;9.85;;;;;;;;;;7402429;19;19930;-72
2023/03/01 06:32:08;;;;;;;22.88;11.45;;;-0.40;99.90;;;;;;7401074;19;19923;-72
2023/03/01 06:34:38;;;;;;;22.70;10.85;;;-0.20;99.90;;;;;;7403078;19;19921;-72
2023/03/01 06:37:10;;;;;;;24.75;12.07;;;-1.30;99.90;;;;;;7402540;19;19943;-71
2023/03/01 06:39:39;;;;;;;27.05;12.55;;;-0.90;99.90;;;;;;7402298;19;19930;-71
2023/03/01 06:42:09;;;;;;;30.55;13.52;;;-0.20;99.90;;;;;;7399812;19;19928;-72
2023/03/01 06:44:38;;;;;;;27.10;12.32;;;-1.00;99.90;;;;;;7399843;19;19922;-72
2023/03/01 06:47:07;;;;;;;20.63;11.82;;;-1.50;99.90;;;;;;7396795;19;19923;-71
2023/03/01 06:49:36;;;;;;;17.27;10.13;;;-1.20;99.90;;;;;;7404757;19;19923;-74
2023/03/01 06:52:08;;;;;;;13.82;8.60;;;-0.70;99.90;;;;;;7403832;19;20729;-71
2023/03/01 06:54:37;;;;;;;13.95;8.27;;;-0.60;99.90;;;;;;7407871;19;19978;-71
2023/03/01 06:57:06;;;;;;;13.77;7.88;;;-1.10;99.90;;;;;;7405392;19;20005;-70
2023/03/01 06:59:35;;;;;;;15.15;8.65;;;0.10;99.90;;;;;;7407392;19;19935;-71
2023/03/01 07:02:04;;;;;;;14.82;8.48;;;-0.80;99.90;;;;;;7408215;19;19926;-71
2023/03/01 07:04:33;;;;;;;12.88;8.13;;;-0.90;99.90;;;;;;7409212;19;19922;-73
2023/03/01 07:07:02;;;;;;;10.95;7.13;;;-0.70;99.90;;;;;;7403218;19;19926;-74
2023/03/01 07:09:36;;;;;;;11.48;7.07;;;-0.60;99.90;;;;;;7405004;19;19942;-73
2023/03/01 07:12:05;;;;;;;14.40;8.23;;;-0.10;99.90;;;;;;7404651;19;20282;-72
2023/03/01 07:14:35;;;;;;;11.90;7.20;;;-1.10;99.90;;;;;;7404118;19;19939;-72
2023/03/01 07:17:05;;;;;;;13.43;7.32;;;;;;;;;;7407285;19;19922;-73
2023/03/01 07:19:34;;;;;;;16.10;8.63;;;;;;;;;;7405390;19;19926;-74
2023/03/01 07:22:04;;;;;;;23.48;9.27;;;;;;;;;;7404627;19;19915;-72
2023/03/01 07:24:40;;;;;;;14.95;8.68;;;-0.40;99.90;;;;;;7404790;19;19933;-71
2023/03/01 07:27:09;;;;;;;54.22;10.20;;;-1.10;99.90;;;;;;7403843;19;20615;-70
2023/03/01 07:29:38;;;;;;;20.58;11.18;;;-0.70;99.90;;;;;;7406413;19;19930;-72
2023/03/01 07:32:16;;;;;;;22.45;10.52;;;;;;;;;;7402605;19;19915;-71
2023/03/01 07:34:45;;;;;;;20.58;10.82;;;0.10;99.90;;;;;;7404327;19;19918;-72
2023/03/01 07:37:14;;;;;;;30.23;10.93;;;;;;;;;;7404377;19;20015;-71
2023/03/01 07:39:48;;;;;;;24.80;10.57;;;-0.30;99.90;;;;;;7400992;19;19927;-72
2023/03/01 07:42:16;;;;;;;20.20;11.23;;;-0.50;99.90;;;;;;7403949;19;19940;-71
2023/03/01 07:44:45;;;;;;;22.73;11.50;;;0.30;99.90;;;;;;7403611;19;19922;-73
2023/03/01 07:47:15;;;;;;;29.85;13.20;;;0.20;99.90;;;;;;7402009;19;19918;-72
2023/03/01 07:49:44;;;;;;;29.20;11.07;;;0.40;99.90;;;;;;7404898;19;20346;-71
2023/03/01 07:52:14;;;;;;;29.45;11.35;;;-0.10;99.90;;;;;;7403874;19;19935;-72
2023/03/01 07:54:49;;;;;;;63.03;11.40;;;-0.30;99.90;;;;;;7403303;19;19974;-71
2023/03/01 07:57:18;;;;;;;53.13;13.10;;;0.20;99.90;;;;;;7404128;19;20269;-72
2023/03/01 07:59:47;;;;;;;53.78;11.05;;;-1.00;99.90;;;;;;7403593;19;19918;-72
2023/03/01 08:02:17;;;;;;;20.40;9.82;;;0.30;99.90;;;;;;7402548;19;19990;-72
2023/03/01 08:04:46;;;;;;;31.73;11.02;;;0.20;99.90;;;;;;7403258;19;19957;-72
2023/03/01 08:07:17;;;;;;;39.25;10.35;;;0.30;99.90;;;;;;7399704;19;19918;-71
2023/03/01 08:09:49;;;;;;;28.55;10.90;;;0.30;99.90;;;;;;7406326;19;19938;-71
2023/03/01 08:12:19;;;;;;;32.13;10.00;;;-0.70;99.90;;;;;;7403661;19;19915;-72
2023/03/01 08:14:48;;;;;;;29.45;10.02;;;0.20;99.90;;;;;;7403731;19;20345;-71
2023/03/01 08:17:18;;;;;;;21.95;9.65;;;0.40;99.90;;;;;;7403977;19;19926;-72
2023/03/01 08:19:47;;;;;;;29.63;10.30;;;;;;;;;;7405201;19;19974;-72
2023/03/01 08:22:20;;;;;;;26.20;11.38;;;0.10;99.90;;;;;;7403019;19;19950;-71
2023/03/01 08:24:52;;;;;;;28.77;10.70;;;0.30;99.90;;;;;;7402424;19;19918;-72
2023/03/01 08:27:21;;;;;;;30.35;10.13;;;0.20;99.90;;;;;;7402537;19;19919;-72
2023/03/01 08:29:50;;;;;;;31.75;9.90;;;0.20;99.90;;;;;;7402384;19;19937;-72
2023/03/01 08:32:19;;;;;;;20.63;9.63;;;-0.30;99.90;;;;;;7400909;19;19922;-72
2023/03/01 08:34:49;;;;;;;23.00;9.85;;;0.20;99.90;;;;;;7406384;19;19918;-72
2023/03/01 08:37:22;;;;;;;35.92;10.43;;;-0.30;99.90;;;;;;7403516;19;19927;-72
2023/03/01 08:39:54;;;;;;;33.33;10.45;;;0.10;99.90;;;;;;7400246;19;19925;-72
2023/03/01 08:42:23;;;;;;;;;;;0.00;99.90;;;;;;7401389;19;20006;-72
2023/03/01 08:44:52;;;;;;;19.77;10.07;;;-0.20;99.90;;;;;;7401413;19;19929;-72
2023/03/01 08:47:21;;;;;;;23.60;9.40;;;0.40;99.90;;;;;;7401166;19;19950;-72
2023/03/01 08:49:52;;;;;;;26.92;9.98;;;0.20;99.90;;;;;;7403799;19;19938;-72
2023/03/01 08:52:24;;;;;;;17.85;9.32;;;0.50;99.90;;;;;;7401967;19;20051;-72
2023/03/01 08:54:55;;;;;;;20.30;9.60;;;0.80;99.90;;;;;;7401129;19;19918;-72
2023/03/01 08:57:25;;;;;;;30.83;9.52;;;-0.20;99.90;;;;;;7403091;19;20344;-72
2023/03/01 08:59:55;;;;;;;20.40;9.35;;;0.30;99.90;;;;;;7402730;19;20374;-72
2023/03/01 09:02:25;;;;;;;19.63;9.23;;;0.20;99.90;;;;;;7405047;19;19929;-72
2023/03/01 09:04:54;;;;;;;18.73;8.93;;;0.70;99.90;;;;;;7402720;19;19924;-72
2023/03/01 09:07:28;;;;;;;19.08;8.27;;;0.40;99.90;;;;;;7399468;19;19926;-72
2023/03/01 09:09:59;;;;;;;17.60;8.80;;;1.30;99.90;;;;;;7402872;19;19929;-72
2023/03/01 09:12:28;;;;;;;19.65;9.18;;;1.30;99.90;;;;;;7398343;19;19919;-73
2023/03/01 09:14:58;;;;;;;19.00;9.77;;;1.60;99.90;;;;;;7402503;19;19922;-72
2023/03/01 09:17:27;;;;;;;16.63;9.32;;;0.60;99.90;;;;;;7401248;19;19943;-72
2023/03/01 09:19:56;;;;;;;18.50;9.20;;;0.40;99.90;;;;;;7402280;19;19998;-72
2023/03/01 09:22:26;;;;;;;18.05;9.75;;;0.40;99.90;;;;;;7399670;19;19927;-72
2023/03/01 09:24:58;;;;;;;17.45;9.40;;;1.60;99.90;;;;;;7401489;19;19974;-72
2023/03/01 09:27:29;;;;;;;19.42;10.85;;;2.30;99.90;;;;;;7401066;19;19918;-72
2023/03/01 09:29:58;;;;;;;24.60;12.77;;;0.90;99.90;;;;;;7404144;19;19922;-72
2023/03/01 09:32:27;;;;;;;29.55;12.60;;;1.90;99.90;;;;;;7403313;19;20279;-72
2023/03/01 09:35:08;;;;;;;25.35;12.68;;;0.70;99.90;;;;;;7402094;19;19961;-72
2023/03/01 09:37:38;;;;;;;22.73;13.10;;;2.30;99.90;;;;;;7400259;19;19981;-72
2023/03/01 09:40:16;;;;;;;23.42;12.98;;;1.40;99.90;;;;;;7400162;19;19989;-72
2023/03/01 09:42:53;;;;;;;;;;;1.90;99.90;;;;;;7402616;19;19938;-72
2023/03/01 09:45:30;;;;;;;21.55;11.63;;;1.30;99.90;;;;;;7401050;19;19923;-72
2023/03/01 09:47:59;;;;;;;20.80;11.65;;;1.50;99.90;;;;;;7398304;19;19927;-72
2023/03/01 09:50:37;;;;;;;22.10;11.48;;;3.00;99.90;;;;;;7402203;19;20372;-72
2023/03/01 09:53:20;;;;;;;22.73;11.77;;;3.00;99.90;;;;;;7401447;19;19950;-71
2023/03/01 09:55:57;;;;;;;22.20;11.57;;;3.20;99.90;;;;;;7402561;19;19950;-72
2023/03/01 09:58:42;;;;;;;23.48;13.43;;;3.00;99.90;;;;;;7403073;19;19918;-72
2023/03/01 10:01:34;;;;;;;23.85;12.68;;;3.30;99.90;;;;;;7399519;19;19985;-72
2023/03/01 10:04:30;;;;;;;21.85;13.23;;;2.10;99.90;;;;;;7399574;19;19974;-71
2023/03/01 10:07:10;;;;;;;21.80;12.40;;;3.80;99.90;;;;;;7398635;19;20747;-73
2023/03/01 10:09:41;;;;;;;20.58;12.38;;;3.70;99.90;;;;;;7400106;19;19926;-73
2023/03/01 10:12:23;;;;;;;25.10;13.43;;;3.40;99.90;;;;;;7399004;19;19915;-72
2023/03/01 10:15:02;;;;;;;19.10;12.48;;;3.40;99.90;;;;;;7400496;19;20305;-72
2023/03/01 10:17:37;;;;;;;24.35;13.43;;;3.40;99.90;;;;;;7401066;19;20358;-72
2023/03/01 10:20:21;;;;;;;21.65;12.93;;;2.30;99.90;;;;;;7400311;19;19943;-72
2023/03/01 10:22:54;;;;;;;21.83;12.88;;;2.50;99.90;;;;;;7398299;19;19982;-72
2023/03/01 10:25:43;;;;;;;22.92;12.95;;;3.60;99.90;;;;;;7402676;19;19938;-72
2023/03/01 10:28:20;;;;;;;22.58;12.75;;;3.50;99.90;;;;;;7404830;19;19930;-73
2023/03/01 10:31:03;;;;;;;24.58;12.52;;;3.70;99.90;;;;;;7406007;19;20055;-69
2023/03/01 10:33:39;;;;;;;21.55;12.35;;;3.10;99.90;;;;;;7410370;19;19981;-70
2023/03/01 10:36:09;;;;;;;26.25;12.90;;;3.20;99.90;;;;;;7404460;19;20631;-71
2023/03/01 10:38:52;;;;;;;23.67;11.88;;;3.00;99.90;;;;;;7405198;19;20249;-70
2023/03/01 10:41:23;;;;;;;21.33;12.18;;;3.30;99.90;;;;;;7406242;19;20300;-70
2023/03/01 10:43:54;;;;;;;22.67;11.20;;;4.10;99.90;;;;;;7406128;19;20621;-70
2023/03/01 10:46:31;;;;;;;22.10;12.23;;;4.00;99.90;;;;;;7408437;19;19935;-70
2023/03/01 10:49:17;;;;;;;21.27;11.48;;;4.30;99.90;;;;;;7406270;19;20353;-72
2023/03/01 10:51:47;;;;;;;24.35;11.43;;;4.50;99.90;;;;;;7407603;19;19946;-73
2023/03/01 10:54:22;;;;;;;19.40;11.52;;;4.50;99.90;;;;;;7407518;19;19930;-73
2023/03/01 10:56:53;;;;;;;23.08;12.85;;;4.60;99.90;;;;;;7405981;19;20273;-73
2023/03/01 10:59:29;;;;;;;20.45;11.77;;;4.70;99.90;;;;;;7407756;19;19930;-75
2023/03/01 11:02:19;;;;;;;20.17;10.73;;;4.70;99.90;;;;;;7402800;19;19922;-75
2023/03/01 11:05:04;;;;;;;19.42;11.13;;;4.80;99.90;;;;;;7405004;19;19926;-73
2023/03/01 11:07:50;;;;;;;19.90;11.32;;;4.90;99.90;;;;;;7406817;19;20007;-70
2023/03/01 11:10:25;;;;;;;23.42;12.43;;;5.60;99.90;;;;;;7405524;19;19986;-72
2023/03/01 11:12:55;;;;;;;21.92;11.05;;;5.20;99.90;;;;;;7404944;19;19915;-71
2023/03/01 11:15:28;;;;;;;21.42;11.35;;;5.30;99.90;;;;;;7408384;19;20312;-71
2023/03/01 11:18:00;;;;;;;20.38;11.50;;;5.30;99.90;;;;;;7405039;19;19927;-71
2023/03/01 11:20:33;;;;;;;20.20;11.30;;;5.40;99.90;;;;;;7405110;19;19922;-71
2023/03/01 11:23:23;;;;;;;18.33;10.55;;;5.70;99.90;;;;;;7403045;19;19919;-72
2023/03/01 11:26:01;;;;;;;16.13;9.88;;;6.30;99.90;;;;;;7404589;19;20060;-71
2023/03/01 11:28:31;;;;;;;;;;;5.90;99.90;;;;;;7405536;19;19934;-71
2023/03/01 11:31:05;;;;;;;17.58;10.25;;;6.40;99.90;;;;;;7405718;19;19919;-72
2023/03/01 11:33:46;;;;;;;19.15;10.98;;;6.10;99.90;;;;;;7404866;19;19978;-70
2023/03/01 11:36:25;;;;;;;16.90;10.77;;;6.30;99.90;;;;;;7405094;19;19932;-71
2023/03/01 11:38:55;;;;;;;18.80;9.73;;;6.30;99.90;;;;;;7404878;19;20267;-71
2023/03/01 11:41:28;;;;;;;15.73;9.93;;;6.40;99.90;;;;;;7404365;19;20267;-71
2023/03/01 11:44:01;;;;;;;17.48;11.07;;;7.10;99.90;;;;;;7404012;19;19994;-70
2023/03/01 11:47:09;;;;;;;16.95;10.15;;;6.60;99.90;;;;;;7404000;19;19914;-70
2023/03/01 11:50:04;;;;;;;22.02;11.18;;;6.70;99.90;;;;;;7406132;19;20526;-74
2023/03/01 11:52:45;;;;;;;19.42;11.43;;;6.80;99.90;;;;;;7404312;19;19922;-75
2023/03/01 11:55:27;;;;;;;19.75;11.25;;;7.00;99.90;;;;;;7404057;19;19911;-75
2023/03/01 11:58:18;;;;;;;22.65;10.40;;;7.00;99.90;;;;;;7408035;19;20278;-74
2023/03/01 12:01:06;;;;;;;16.33;10.15;;;7.00;99.90;;;;;;7405851;19;20246;-75
2023/03/01 12:04:07;;;;;;;16.60;10.75;;;7.10;99.90;;;;;;7407257;19;19929;-75
2023/03/01 12:06:52;;;;;;;17.48;10.85;;;7.20;99.90;;;;;;7403685;19;19958;-72
2023/03/01 12:09:34;;;;;;;17.15;10.75;;;7.40;99.90;;;;;;7406202;19;19919;-72
2023/03/01 12:12:28;;;;;;;17.02;9.75;;;7.40;99.90;;;;;;7405749;19;19996;-72
2023/03/01 12:15:23;;;;;;;16.45;8.93;;;7.60;99.90;;;;;;7406092;19;20257;-71
2023/03/01 12:18:10;;;;;;;17.23;9.75;;;7.70;99.90;;;;;;7405657;19;19940;-72
2023/03/01 12:20:50;;;;;;;17.77;10.52;;;7.80;99.90;;;;;;7404757;19;19926;-71
2023/03/01 12:23:54;;;;;;;14.45;9.90;;;7.80;99.90;;;;;;7401036;19;19990;-72
2023/03/01 12:26:31;;;;;;;14.77;9.65;;;8.10;99.90;;;;;;7403722;19;20400;-71
2023/03/01 12:29:23;;;;;;;15.45;9.13;;;7.90;99.90;;;;;;7403601;19;20387;-72
2023/03/01 12:32:38;;;;;;;19.48;11.10;;;8.10;99.90;;;;;;7402774;19;19935;-72
2023/03/01 12:35:43;;;;;;;18.13;10.48;;;8.20;99.90;;;;;;7399481;19;19922;-72
2023/03/01 12:38:28;;;;;;;17.73;10.95;;;8.40;99.90;;;;;;7402940;19;20405;-72
2023/03/01 12:41:32;;;;;;;16.92;10.55;;;8.30;99.90;;;;;;7402178;19;20331;-72
2023/03/01 12:44:12;;;;;;;18.63;10.45;;;8.30;99.90;;;;;;7402538;19;19919;-72
2023/03/01 12:46:57;;;;;;;18.10;11.15;;;8.10;99.90;;;;;;7403989;19;19918;-72
2023/03/01 12:49:31;;;;;;;20.15;10.98;;;8.10;99.90;;;;;;7400780;19;19918;-72
2023/03/01 12:52:04;;;;;;;19.60;11.00;;;7.90;99.90;;;;;;7401259;19;20003;-70
2023/03/01 12:54:35;;;;;;;19.38;11.10;;;8.10;99.90;;;;;;7402365;19;19934;-70
2023/03/01 12:57:15;;;;;;;17.40;11.02;;;8.10;99.90;;;;;;7403858;19;19926;-70
2023/03/01 12:59:51;;;;;;;19.35;11.65;;;8.20;99.90;;;;;;7403768;19;19926;-72
2023/03/01 13:02:26;;;;;;;19.05;11.30;;;8.20;99.90;;;;;;7401882;19;19918;-72
2023/03/01 13:05:08;;;;;;;17.45;10.45;;;8.40;99.90;;;;;;7401120;19;19919;-72
2023/03/01 13:07:43;;;;;;;17.73;10.57;;;8.70;99.90;;;;;;7400820;19;19982;-72
2023/03/01 13:10:24;;;;;;;16.52;10.90;;;8.70;99.90;;;;;;7404688;19;20027;-71
2023/03/01 13:13:05;;;;;;;;;;;8.90;99.90;;;;;;7403045;19;19943;-72
2023/03/01 13:15:39;;;;;;;16.77;10.73;;;9.00;99.90;;;;;;7401979;19;19987;-72
2023/03/01 13:18:34;;;;;;;20.10;10.80;;;9.10;99.90;;;;;;7401469;19;19932;-72
2023/03/01 13:21:09;;;;;;;18.10;9.48;;;9.10;99.90;;;;;;7405039;19;20251;-72